Time;durP1;ratioP1;P1;durP2;ratioP2;P2;SDS_P1;SDS_P2;PMS_P1;PMS_P2;Temp;Humidity;BMP_temperature;BMP_pressure;BME280_temperature;BME280_humidity;BME280_pressure;Samples;Min_cycle;Max_cycle;Signal;HPM_P1;HPM_P2
2022/04/30 00:03:33;;;;;;;;;;;10.40;68.30;;;;;;8386145;28;20406;-66
2022/04/30 00:07:34;;;;;;;;;;;10.30;68.40;;;;;;8389568;28;19927;-66
2022/04/30 00:11:36;;;;;;;;;;;10.30;68.50;;;;;;8391976;28;19928;-66
2022/04/30 00:15:38;;;;;;;;;;;10.20;68.30;;;;;;8380613;28;19927;-66
2022/04/30 00:19:40;;;;;;;;;;;10.20;68.60;;;;;;8378642;28;19927;-65
2022/04/30 00:23:42;;;;;;;;;;;10.10;68.60;;;;;;8397561;28;19925;-66
2022/04/30 00:27:43;;;;;;;;;;;10.10;68.90;;;;;;8387563;28;19925;-65
2022/04/30 00:31:45;;;;;;;;;;;10.10;69.20;;;;;;8395059;28;20292;-65
2022/04/30 00:35:48;;;;;;;;;;;10.00;69.10;;;;;;8386421;28;20886;-65
2022/04/30 00:39:49;;;;;;;;;;;10.00;69.00;;;;;;8397870;28;19921;-65
2022/04/30 00:43:53;;;;;;;;;;;9.90;70.30;;;;;;8400151;28;19927;-66
2022/04/30 00:47:55;;;;;;;;;;;9.80;70.30;;;;;;8395166;28;19920;-65
2022/04/30 00:51:58;;;;;;;;;;;9.70;70.30;;;;;;8397705;28;19973;-65
2022/04/30 00:56:00;;;;;;;;;;;9.60;69.70;;;;;;8383487;28;20298;-66
2022/04/30 01:00:03;;;;;;;;;;;9.50;70.10;;;;;;8388081;28;19924;-65
2022/04/30 01:04:07;;;;;;;;;;;9.40;69.70;;;;;;8387627;28;19925;-66
2022/04/30 01:08:10;;;;;;;;;;;9.20;70.00;;;;;;8396096;28;20284;-65
2022/04/30 01:12:13;;;;;;;;;;;9.00;70.00;;;;;;8383551;28;19920;-66
2022/04/30 01:16:16;;;;;;;;;;;8.90;70.20;;;;;;8386728;28;19924;-65
2022/04/30 01:20:18;;;;;;;;;;;8.70;70.90;;;;;;8373654;28;19925;-65
2022/04/30 01:24:21;;;;;;;;;;;8.60;70.90;;;;;;8380936;28;19927;-65
2022/04/30 01:28:23;;;;;;;;;;;8.60;70.70;;;;;;8395891;28;19927;-66
2022/04/30 01:41:09;;;;;;;;;;;8.30;70.50;;;;;;8383345;28;19921;-65
2022/04/30 01:45:11;;;;;;;;;;;8.30;69.40;;;;;;8375088;28;19927;-65
2022/04/30 01:49:16;;;;;;;;;;;8.20;70.00;;;;;;8383802;28;19928;-66
2022/04/30 01:53:17;;;;;;;;;;;8.10;69.80;;;;;;8388561;28;19921;-66
2022/04/30 01:57:26;;;;;;;;;;;8.10;69.00;;;;;;8384718;28;20270;-65
2022/04/30 02:01:28;;;;;;;;;;;8.00;69.70;;;;;;8404590;28;19920;-66
2022/04/30 02:05:30;;;;;;;;;;;7.90;70.20;;;;;;8389066;28;19928;-66
2022/04/30 02:09:32;;;;;;;;;;;7.80;70.40;;;;;;8378772;28;19929;-65
2022/04/30 02:13:38;;;;;;;;;;;7.80;69.90;;;;;;8377774;28;19928;-65
2022/04/30 02:17:41;;;;;;;;;;;7.70;70.00;;;;;;8389697;28;19924;-65
2022/04/30 02:21:43;;;;;;;;;;;7.60;69.70;;;;;;8384728;28;19924;-66
2022/04/30 02:25:45;;;;;;;;;;;7.60;69.70;;;;;;8394875;28;19927;-66
2022/04/30 02:29:47;;;;;;;;;;;7.50;68.90;;;;;;8399554;28;19921;-65
2022/04/30 02:33:49;;;;;;;;;;;7.50;68.90;;;;;;8398022;28;19947;-65
2022/04/30 02:37:52;;;;;;;;;;;7.40;69.20;;;;;;8393962;28;19927;-65
2022/04/30 02:41:54;;;;;;;;;;;7.30;69.20;;;;;;8397609;28;19977;-66
2022/04/30 02:45:55;;;;;;;;;;;7.30;69.30;;;;;;8390652;28;19928;-65
2022/04/30 02:49:57;;;;;;;;;;;7.20;69.50;;;;;;8396211;28;19931;-65
2022/04/30 02:53:59;;;;;;;;;;;7.10;69.00;;;;;;8399683;28;19982;-65
2022/04/30 03:02:21;;;;;;;;;;;7.00;69.50;;;;;;8391377;28;20379;-65
2022/04/30 03:06:24;;;;;;;;;;;6.90;69.60;;;;;;8403307;28;20241;-65
2022/04/30 03:10:26;;;;;;;;;;;6.90;69.00;;;;;;8396218;28;19950;-65
2022/04/30 03:14:28;;;;;;;;;;;6.80;69.50;;;;;;8409289;28;19920;-65
2022/04/30 03:22:50;;;;;;;;;;;6.80;69.40;;;;;;8380909;28;19928;-65
2022/04/30 03:26:51;;;;;;;;;;;6.70;69.40;;;;;;8381082;28;19921;-65
2022/04/30 03:30:53;;;;;;;;;;;6.60;69.00;;;;;;8395687;28;19928;-65
2022/04/30 03:34:55;;;;;;;;;;;6.50;69.00;;;;;;8402078;28;20442;-65
2022/04/30 03:38:57;;;;;;;;;;;6.40;68.80;;;;;;8419784;27;19931;-65
2022/04/30 03:42:59;;;;;;;;;;;6.40;68.50;;;;;;8385168;28;19921;-65
2022/04/30 03:47:00;;;;;;;;;;;6.30;68.50;;;;;;8431307;27;19920;-65
2022/04/30 03:51:08;;;;;;;;;;;6.20;68.30;;;;;;8410062;28;19924;-65
2022/04/30 03:55:10;;;;;;;;;;;6.10;68.80;;;;;;8388914;28;19930;-66
2022/04/30 03:59:12;;;;;;;;;;;6.10;69.70;;;;;;8389663;28;20383;-65
2022/04/30 04:03:13;;;;;;;;;;;6.00;69.60;;;;;;8391131;28;19924;-68
2022/04/30 04:07:15;;;;;;;;;;;6.00;68.80;;;;;;8399296;28;19928;-68
2022/04/30 04:11:17;;;;;;;;;;;6.00;68.80;;;;;;8384261;28;20391;-68
2022/04/30 04:19:39;;;;;;;;;;;5.90;68.30;;;;;;8391099;28;20344;-68
2022/04/30 04:28:01;;;;;;;;;;;5.80;68.40;;;;;;8415660;28;19920;-68
2022/04/30 04:32:03;;;;;;;;;;;5.80;68.70;;;;;;8387911;28;19920;-68
2022/04/30 04:36:05;;;;;;;;;;;5.70;68.40;;;;;;8373933;28;19940;-68
2022/04/30 04:40:07;;;;;;;;;;;5.70;68.40;;;;;;8400040;28;19921;-68
2022/04/30 04:44:09;;;;;;;;;;;5.60;68.30;;;;;;8410696;28;19921;-68
2022/04/30 04:48:12;;;;;;;;;;;5.60;68.90;;;;;;8397551;28;19924;-68
2022/04/30 04:52:14;;;;;;;;;;;5.60;69.10;;;;;;8381389;28;19931;-68
2022/04/30 04:56:16;;;;;;;;;;;5.60;69.20;;;;;;8412402;28;19932;-68
2022/04/30 05:00:17;;;;;;;;;;;5.60;69.00;;;;;;8379451;28;19928;-68
2022/04/30 05:04:19;;;;;;;;;;;5.60;68.80;;;;;;8389206;28;19920;-68
2022/04/30 05:08:21;;;;;;;;;;;5.70;69.10;;;;;;8384015;28;19927;-68
2022/04/30 05:12:23;;;;;;;;;;;5.70;69.60;;;;;;8391240;28;19927;-68
2022/04/30 05:16:24;;;;;;;;;;;5.70;69.80;;;;;;8408341;28;19928;-68
2022/04/30 05:20:26;;;;;;;;;;;5.80;70.70;;;;;;8380101;28;19920;-68
2022/04/30 05:24:43;;;;;;;;;;;5.90;70.70;;;;;;8394229;28;19927;-68
2022/04/30 05:28:45;;;;;;;;;;;5.90;70.70;;;;;;8414526;27;19938;-68
2022/04/30 05:32:46;;;;;;;;;;;6.00;71.10;;;;;;8380804;28;19924;-68
2022/04/30 05:36:48;;;;;;;;;;;6.10;71.50;;;;;;8377207;28;19920;-68
2022/04/30 05:40:49;;;;;;;;;;;6.10;71.80;;;;;;8379244;28;19924;-68
2022/04/30 05:44:51;;;;;;;;;;;6.20;72.10;;;;;;8386916;28;19920;-68
2022/04/30 05:48:53;;;;;;;;;;;6.30;72.10;;;;;;8388892;28;20322;-68
2022/04/30 05:52:54;;;;;;;;;;;6.30;72.40;;;;;;8408914;28;20269;-68
2022/04/30 05:56:57;;;;;;;;;;;6.40;72.80;;;;;;8410192;28;19956;-68
2022/04/30 06:00:59;;;;;;;;;;;6.50;72.80;;;;;;8392010;28;20357;-68
2022/04/30 06:05:01;;;;;;;;;;;6.50;73.10;;;;;;8424471;28;19920;-68
2022/04/30 06:09:02;;;;;;;;;;;6.50;73.90;;;;;;8380008;28;19925;-68
2022/04/30 06:13:04;;;;;;;;;;;6.60;73.80;;;;;;8369214;28;20379;-68
2022/04/30 06:17:06;;;;;;;;;;;6.70;74.10;;;;;;8378194;28;19928;-68
2022/04/30 06:21:07;;;;;;;;;;;6.80;74.40;;;;;;8375270;28;19920;-68
2022/04/30 06:25:10;;;;;;;;;;;6.90;74.60;;;;;;8377292;28;20015;-68
2022/04/30 06:29:12;;;;;;;;;;;7.00;74.90;;;;;;8372526;28;19952;-68
2022/04/30 06:33:14;;;;;;;;;;;7.10;75.20;;;;;;8372252;28;19929;-68
2022/04/30 06:37:17;;;;;;;;;;;7.20;75.60;;;;;;8368377;28;20295;-68
2022/04/30 06:41:19;;;;;;;;;;;7.30;76.50;;;;;;8365268;28;19921;-68
2022/04/30 06:45:21;;;;;;;;;;;7.50;76.60;;;;;;8367869;28;19921;-68
2022/04/30 06:49:23;;;;;;;;;;;7.60;77.40;;;;;;8402061;28;19935;-68
2022/04/30 06:57:47;;;;;;;;;;;7.80;78.90;;;;;;8370534;28;19924;-68
2022/04/30 07:05:51;;;;;;;;;;;8.10;80.10;;;;;;8372811;28;19966;-68
2022/04/30 07:09:53;;;;;;;;;;;8.30;80.60;;;;;;8371662;28;19921;-68
2022/04/30 07:13:54;;;;;;;;;;;8.40;81.30;;;;;;8371012;28;19921;-68
2022/04/30 07:17:56;;;;;;;;;;;8.60;83.50;;;;;;8371451;28;20363;-68
2022/04/30 07:21:58;;;;;;;;;;;8.70;83.00;;;;;;8374175;28;19920;-68
2022/04/30 07:25:59;;;;;;;;;;;8.90;83.00;;;;;;8374012;28;20277;-68
2022/04/30 07:40:08;;;;;;;;;;;9.50;83.80;;;;;;8364753;28;19924;-68
2022/04/30 07:44:10;;;;;;;;;;;9.70;85.60;;;;;;8361201;28;19924;-68
2022/04/30 07:48:11;;;;;;;;;;;9.90;86.50;;;;;;8360307;28;20023;-68
2022/04/30 07:52:14;;;;;;;;;;;10.00;84.00;;;;;;8365749;28;19935;-68
2022/04/30 07:56:16;;;;;;;4.72;1.83;;;10.10;84.70;;;;;;8364089;28;19921;-68
2022/04/30 08:00:18;;;;;;;;;;;10.20;83.80;;;;;;8363394;28;20041;-68
2022/04/30 08:04:20;;;;;;;;;;;10.40;84.20;;;;;;8362657;28;19928;-68
2022/04/30 08:08:21;;;;;;;;;;;10.50;84.30;;;;;;8361154;28;20280;-68
2022/04/30 08:12:23;;;;;;;;;;;10.70;84.00;;;;;;8358720;28;20281;-68
2022/04/30 08:16:25;;;;;;;;;;;10.80;83.60;;;;;;8364386;28;19931;-68
2022/04/30 08:20:26;;;;;;;;;;;10.90;83.40;;;;;;8363890;28;20466;-68
2022/04/30 08:24:28;;;;;;;;;;;11.00;83.60;;;;;;8361236;28;19936;-68
2022/04/30 08:28:30;;;;;;;;;;;11.10;83.70;;;;;;8359614;28;19921;-68
2022/04/30 08:32:31;;;;;;;;;;;11.30;83.80;;;;;;8391310;27;19925;-68
2022/04/30 08:36:33;;;;;;;;;;;11.40;84.10;;;;;;8357805;28;19920;-68
2022/04/30 08:40:35;;;;;;;;;;;11.50;83.40;;;;;;8360919;28;19928;-68
2022/04/30 08:44:37;;;;;;;;;;;11.60;83.80;;;;;;8363957;28;19921;-68
2022/04/30 08:48:40;;;;;;;;;;;11.70;83.80;;;;;;8370014;28;19924;-68
2022/04/30 08:52:42;;;;;;;;;;;11.90;84.00;;;;;;8359380;28;20299;-68
2022/04/30 08:56:51;;;;;;;;;;;12.00;84.00;;;;;;8357758;28;21352;-68
2022/04/30 09:00:53;;;;;;;;;;;12.00;83.80;;;;;;8369287;28;19920;-68
2022/04/30 09:04:55;;;;;;;;;;;12.00;84.00;;;;;;8357707;28;20283;-68
2022/04/30 09:08:56;;;;;;;;;;;12.00;83.70;;;;;;8393229;28;20220;-68
2022/04/30 09:13:05;;;;;;;;;;;12.00;83.40;;;;;;8355028;28;19925;-68
2022/04/30 09:17:09;;;;;;;;;;;12.00;83.40;;;;;;8359454;28;19920;-68
2022/04/30 09:21:14;;;;;;;;;;;12.00;83.50;;;;;;8368248;28;20297;-68
2022/04/30 09:25:16;;;;;;;;;;;12.10;83.50;;;;;;8365395;28;19928;-68
2022/04/30 09:29:36;;;;;;;;;;;12.10;83.20;;;;;;8358342;28;20020;-68
2022/04/30 09:33:38;;;;;;;;;;;12.00;82.70;;;;;;8357871;28;20000;-68
2022/04/30 09:37:49;;;;;;;;;;;12.00;82.60;;;;;;8390304;28;19931;-68
2022/04/30 09:42:00;;;;;;;;;;;12.00;82.60;;;;;;8359413;28;19927;-68
2022/04/30 09:46:03;;;;;;;;;;;12.00;82.50;;;;;;8356532;28;20403;-68
2022/04/30 09:54:27;;;;;;;;;;;12.10;83.10;;;;;;8357565;28;19948;-68
2022/04/30 09:58:31;;;;;;;;;;;12.20;83.10;;;;;;8353380;28;19927;-68
2022/04/30 10:02:33;;;;;;;;;;;12.30;83.90;;;;;;8358167;28;19925;-68
2022/04/30 10:06:39;;;;;;;;;;;12.40;84.10;;;;;;8353972;28;20315;-68
2022/04/30 10:10:51;;;;;;;;;;;12.60;84.20;;;;;;8350440;28;20177;-68
2022/04/30 10:14:56;;;;;;;;;;;12.50;83.70;;;;;;8352252;28;19931;-68
2022/04/30 10:19:10;;;;;;;;;;;12.30;83.10;;;;;;8355716;28;19928;-68
2022/04/30 10:23:15;;;;;;;;;;;12.10;82.70;;;;;;8354711;28;19929;-68
2022/04/30 10:27:17;;;;;;;;;;;12.00;82.60;;;;;;8352136;28;20019;-68
2022/04/30 10:31:19;;;;;;;;;;;11.80;82.00;;;;;;8352608;28;19928;-68
2022/04/30 10:35:27;;;;;;;;;;;11.60;81.50;;;;;;8353483;28;19931;-68
2022/04/30 10:39:29;;;;;;;;;;;11.50;81.10;;;;;;8368396;28;19928;-68
2022/04/30 10:43:35;;;;;;;;;;;11.40;80.80;;;;;;8361001;28;19927;-68
2022/04/30 10:47:48;;;;;;;;;;;11.40;80.80;;;;;;8362246;28;19925;-68
2022/04/30 10:51:53;;;;;;;;;;;11.30;80.70;;;;;;8361579;28;19924;-68
2022/04/30 10:55:55;;;;;;;;;;;11.30;80.70;;;;;;8359913;28;20395;-68
2022/04/30 11:00:01;;;;;;;;;;;11.30;80.90;;;;;;8359294;28;20372;-68
2022/04/30 11:04:03;;;;;;;;;;;11.30;80.90;;;;;;8391913;28;19920;-68
2022/04/30 11:08:05;;;;;;;;;;;11.30;81.10;;;;;;8361649;28;19931;-68
2022/04/30 11:12:06;;;;;;;;;;;11.30;81.20;;;;;;8359501;28;19928;-68
2022/04/30 11:16:17;;;;;;;;;;;11.30;81.20;;;;;;8359935;28;19932;-68
2022/04/30 11:25:05;;;;;;;;;;;11.40;81.70;;;;;;8357884;28;19957;-68
2022/04/30 11:29:07;;;;;;;;;;;11.40;82.00;;;;;;8358487;28;21272;-68
2022/04/30 11:33:09;;;;;;;;;;;11.50;81.90;;;;;;8357146;28;19928;-68
2022/04/30 11:37:11;;;;;;;;;;;11.50;82.00;;;;;;8353402;28;19921;-68
2022/04/30 11:41:16;;;;;;;;;;;11.60;82.20;;;;;;8361979;28;19960;-68
2022/04/30 11:45:31;;;;;;;;;;;11.60;82.30;;;;;;8356528;28;20304;-68
2022/04/30 11:49:33;;;;;;;;;;;11.70;82.40;;;;;;8356494;28;19978;-68
2022/04/30 11:53:39;;;;;;;3.53;1.55;;;11.80;82.60;;;;;;8358247;28;19933;-68
2022/04/30 11:57:42;;;;;;;;;;;11.80;82.80;;;;;;8360434;28;20443;-68
2022/04/30 12:01:44;;;;;;;;;;;11.90;82.90;;;;;;8360359;28;19951;-68
2022/04/30 12:05:46;;;;;;;;;;;12.00;82.90;;;;;;8359645;28;19924;-68
2022/04/30 12:09:50;;;;;;;;;;;12.10;83.30;;;;;;8359222;28;19928;-68
2022/04/30 12:13:55;;;;;;;;;;;12.20;83.10;;;;;;8372336;28;20372;-68
2022/04/30 12:26:58;;;;;;;;;;;12.10;83.00;;;;;;8357259;28;19928;-68
2022/04/30 12:31:00;;;;;;;;;;;12.10;83.20;;;;;;8360314;28;20287;-68
2022/04/30 12:35:01;;;;;;;;;;;12.00;83.30;;;;;;8360233;28;19921;-68
2022/04/30 12:39:03;;;;;;;;;;;12.00;83.30;;;;;;8363486;28;19932;-68
2022/04/30 12:43:05;;;;;;;;;;;12.10;83.60;;;;;;8358308;28;19929;-68
2022/04/30 12:47:09;;;;;;;;;;;12.10;83.60;;;;;;8359701;28;20023;-68
2022/04/30 12:51:11;;;;;;;;;;;12.10;83.50;;;;;;8358616;28;20254;-68
2022/04/30 12:55:14;;;;;;;;;;;12.10;83.70;;;;;;8359291;28;19921;-68
2022/04/30 12:59:16;;;;;;;;;;;12.20;84.10;;;;;;8355013;28;20372;-68
2022/04/30 13:03:18;;;;;;;;;;;12.20;84.30;;;;;;8357089;28;20762;-68
2022/04/30 13:07:19;;;;;;;;;;;12.30;84.70;;;;;;8368180;28;19921;-68
2022/04/30 13:15:47;;;;;;;;;;;12.50;85.10;;;;;;8351730;28;19974;-68
2022/04/30 13:19:49;;;;;;;;;;;12.50;85.10;;;;;;8356655;28;20076;-68
2022/04/30 13:23:51;;;;;;;;;;;12.60;85.80;;;;;;8361096;28;20601;-68
2022/04/30 13:27:52;;;;;;;;;;;12.70;85.80;;;;;;8356993;28;19929;-68
2022/04/30 13:31:54;;;;;;;;;;;12.70;85.90;;;;;;8358242;28;19963;-68
2022/04/30 13:35:56;;;;;;;;;;;12.80;86.00;;;;;;8358862;28;20719;-68
2022/04/30 13:39:57;;;;;;;;;;;12.90;86.20;;;;;;8357164;28;19924;-68
2022/04/30 13:43:59;;;;;;;;;;;12.90;86.10;;;;;;8361521;28;20465;-68
2022/04/30 13:48:00;;;;;;;;;;;13.00;85.60;;;;;;8358871;28;19924;-69
2022/04/30 13:52:02;;;;;;;;;;;13.00;85.90;;;;;;8361356;28;19967;-69
2022/04/30 13:56:05;;;;;;;;;;;13.00;85.60;;;;;;8356501;28;19924;-69
2022/04/30 14:00:12;;;;;;;;;;;13.20;86.30;;;;;;8356229;28;20292;-69
2022/04/30 14:04:14;;;;;;;1.60;1.00;;;13.30;86.60;;;;;;8356674;28;19935;-69
2022/04/30 14:08:16;;;;;;;;;;;13.40;86.20;;;;;;8359674;28;19925;-68
2022/04/30 14:12:17;;;;;;;;;;;13.50;86.10;;;;;;8365828;28;19932;-68
2022/04/30 14:16:19;;;;;;;;;;;13.60;86.50;;;;;;8367723;28;19924;-69
2022/04/30 14:20:21;;;;;;;;;;;13.60;86.40;;;;;;8349957;28;19932;-69
2022/04/30 14:24:23;;;;;;;;;;;13.60;86.10;;;;;;8390974;27;20023;-69
2022/04/30 14:28:28;;;;;;;;;;;13.50;85.60;;;;;;8362182;28;19951;-69
2022/04/30 14:32:30;;;;;;;;;;;13.40;85.40;;;;;;8362674;28;19933;-69
2022/04/30 14:36:33;;;;;;;;;;;13.40;85.70;;;;;;8362419;28;19929;-69
2022/04/30 14:40:35;;;;;;;;;;;13.40;85.90;;;;;;8361853;28;19925;-69
2022/04/30 14:44:42;;;;;;;;;;;13.40;85.80;;;;;;8396132;28;19932;-69
2022/04/30 14:48:44;;;;;;;;;;;13.30;85.80;;;;;;8362435;28;19924;-69
2022/04/30 14:52:47;;;;;;;;;;;13.30;85.70;;;;;;8356994;28;19935;-68
2022/04/30 14:56:49;;;;;;;;;;;13.30;85.70;;;;;;8357444;28;20023;-68
2022/04/30 15:00:51;;;;;;;;;;;13.30;85.90;;;;;;8391956;27;19935;-69
2022/04/30 15:04:53;;;;;;;;;;;13.40;85.90;;;;;;8361734;28;19925;-68
2022/04/30 15:08:56;;;;;;;;;;;13.40;86.00;;;;;;8359168;28;20027;-69
2022/04/30 15:12:58;;;;;;;;;;;13.30;85.70;;;;;;8358272;28;19933;-66
2022/04/30 15:17:00;;;;;;;;;;;13.30;85.50;;;;;;8359193;28;20352;-66
2022/04/30 15:21:02;;;;;;;;;;;13.30;85.50;;;;;;8388792;28;19925;-66
2022/04/30 15:25:04;;;;;;;;;;;13.30;85.60;;;;;;8354265;28;19925;-66
2022/04/30 15:29:06;;;;;;;;;;;13.20;85.40;;;;;;8358547;28;20395;-66
2022/04/30 15:33:09;;;;;;;;;;;13.20;85.40;;;;;;8356507;28;20272;-66
2022/04/30 15:37:11;;;;;;;;;;;13.20;85.50;;;;;;8356487;28;20412;-66
2022/04/30 15:41:14;;;;;;;;;;;13.20;85.40;;;;;;8359758;28;19980;-66
2022/04/30 15:45:16;;;;;;;;;;;13.10;85.30;;;;;;8361326;28;19954;-66
2022/04/30 15:53:56;;;;;;;;;;;13.10;85.20;;;;;;8355344;28;19936;-68
2022/04/30 15:57:58;;;;;;;;;;;13.00;85.20;;;;;;8359247;28;19931;-68
2022/04/30 16:02:01;;;;;;;;;;;13.00;85.10;;;;;;8355178;28;19924;-68
2022/04/30 16:06:03;;;;;;;;;;;13.00;85.10;;;;;;8356695;28;19932;-68
2022/04/30 16:10:07;;;;;;;;;;;12.90;85.00;;;;;;8355913;28;19939;-68
2022/04/30 16:14:09;;;;;;;;;;;12.90;85.10;;;;;;8354146;28;19928;-68
2022/04/30 16:18:11;;;;;;;;;;;12.90;85.30;;;;;;8382039;28;19939;-68
2022/04/30 16:22:12;;;;;;;;;;;12.90;85.50;;;;;;8355247;28;20300;-69
2022/04/30 16:26:16;;;;;;;;;;;12.90;85.30;;;;;;8357020;28;19951;-68
2022/04/30 16:30:18;;;;;;;;;;;12.80;85.20;;;;;;8356316;28;19929;-69
2022/04/30 16:34:20;;;;;;;;;;;12.80;84.90;;;;;;8359438;28;19925;-69
2022/04/30 16:38:27;;;;;;;;;;;12.80;84.70;;;;;;8356007;28;20518;-66
2022/04/30 16:42:28;;;;;;;;;;;12.70;84.70;;;;;;8356605;28;19968;-66
2022/04/30 16:46:33;;;;;;;;;;;12.70;84.70;;;;;;8358977;28;19925;-66
2022/04/30 16:50:35;;;;;;;;;;;12.70;84.90;;;;;;8353828;28;19940;-68
2022/04/30 16:58:58;;;;;;;;;;;12.70;84.70;;;;;;8354484;28;19931;-69
2022/04/30 17:03:00;;;;;;;;;;;12.70;84.70;;;;;;8388073;28;20339;-69
2022/04/30 17:07:03;;;;;;;;;;;12.70;84.60;;;;;;8359831;28;20019;-68
2022/04/30 17:11:05;;;;;;;;;;;12.70;84.70;;;;;;8383603;28;19944;-68
2022/04/30 17:15:07;;;;;;;;;;;12.70;84.90;;;;;;8355797;28;19925;-68
2022/04/30 17:19:09;;;;;;;;;;;12.70;84.70;;;;;;8354859;28;19935;-69
2022/04/30 17:23:11;;;;;;;;;;;12.70;84.90;;;;;;8355555;28;19928;-66
2022/04/30 17:40:57;;;;;;;;;;;12.60;85.30;;;;;;8370527;28;19965;-68
2022/04/30 17:44:58;;;;;;;;;;;12.60;85.20;;;;;;8354632;28;20256;-68
2022/04/30 17:49:02;;;;;;;;;;;12.60;85.30;;;;;;8353770;28;20610;-68
2022/04/30 17:53:04;;;;;;;;;;;12.60;85.80;;;;;;8351458;28;19991;-69
2022/04/30 17:57:05;;;;;;;;;;;12.50;85.10;;;;;;8355231;28;19925;-68
2022/04/30 18:01:09;;;;;;;;;;;12.50;85.10;;;;;;8354669;28;19932;-68
2022/04/30 18:05:10;;;;;;;;;;;12.50;85.00;;;;;;8353694;28;19974;-68
2022/04/30 18:09:12;;;;;;;;;;;12.40;85.00;;;;;;8357445;28;19925;-68
2022/04/30 18:13:14;;;;;;;;;;;12.40;85.20;;;;;;8354278;28;20047;-68
2022/04/30 18:17:16;;;;;;;;;;;12.40;85.10;;;;;;8384761;28;20398;-68
2022/04/30 18:21:18;;;;;;;;;;;12.40;85.20;;;;;;8355327;28;19928;-69
2022/04/30 18:25:19;;;;;;;;;;;12.40;85.20;;;;;;8349560;28;19932;-69
2022/04/30 18:29:22;;;;;;;;;;;12.30;85.10;;;;;;8351243;28;19932;-69
2022/04/30 18:33:24;;;;;;;;;;;12.30;85.10;;;;;;8351844;28;19936;-69
2022/04/30 18:37:26;;;;;;;;;;;12.30;85.10;;;;;;8357312;28;19928;-69
2022/04/30 18:41:28;;;;;;;;;;;12.20;85.20;;;;;;8354133;28;20423;-69
2022/04/30 18:45:29;;;;;;;;;;;12.20;85.10;;;;;;8354509;28;20358;-69
2022/04/30 18:49:32;;;;;;;;;;;12.20;85.00;;;;;;8356451;28;19986;-69
2022/04/30 18:53:34;;;;;;;;;;;12.10;85.00;;;;;;8355047;28;19963;-69
2022/04/30 19:01:57;;;;;;;;;;;12.10;85.10;;;;;;8371902;28;20308;-69
2022/04/30 19:06:00;;;;;;;;;;;12.00;85.10;;;;;;8361315;28;19933;-69
2022/04/30 19:10:06;;;;;;;;;;;12.00;85.10;;;;;;8355231;28;20015;-69
2022/04/30 19:14:07;;;;;;;;;;;11.90;85.20;;;;;;8386766;28;19925;-69
2022/04/30 19:18:10;;;;;;;;;;;11.90;85.30;;;;;;8358570;28;19933;-69
2022/04/30 19:22:11;;;;;;;;;;;11.80;85.20;;;;;;8372646;28;19929;-69
2022/04/30 19:26:13;;;;;;;;;;;11.80;85.20;;;;;;8377097;28;19948;-69
2022/04/30 19:30:15;;;;;;;;;;;11.80;85.30;;;;;;8373339;28;20609;-69
2022/04/30 19:34:16;;;;;;;;;;;11.80;85.50;;;;;;8368551;28;19933;-69
2022/04/30 19:38:18;;;;;;;;;;;11.80;85.50;;;;;;8356797;28;20374;-69
2022/04/30 19:42:22;;;;;;;;;;;11.70;85.50;;;;;;8361903;28;19940;-69
2022/04/30 19:46:28;;;;;;;;;;;11.70;85.50;;;;;;8359650;28;19932;-69
2022/04/30 19:50:30;;;;;;;;;;;11.70;85.80;;;;;;8354218;28;20501;-69
2022/04/30 19:54:32;;;;;;;;;;;11.70;85.70;;;;;;8357397;28;20403;-69
2022/04/30 19:58:34;;;;;;;;;;;11.70;85.50;;;;;;8353422;28;19940;-69
2022/04/30 20:02:37;;;;;;;;;;;11.60;85.70;;;;;;8387912;28;19928;-69
2022/04/30 20:06:39;;;;;;;;;;;11.60;85.70;;;;;;8357457;28;19935;-69
2022/04/30 20:19:21;;;;;;;;;;;11.50;85.90;;;;;;8364508;28;19932;-69
2022/04/30 20:23:25;;;;;;;;;;;11.40;85.90;;;;;;8354279;28;20418;-69
2022/04/30 20:27:26;;;;;;;;;;;11.40;86.10;;;;;;8354298;28;19925;-69
2022/04/30 20:40:09;;;;;;;;;;;11.30;86.40;;;;;;8354090;28;20387;-68
2022/04/30 20:44:11;;;;;;;;;;;11.30;86.50;;;;;;8359231;28;20245;-69
2022/04/30 20:48:12;;;;;;;;;;;11.20;86.40;;;;;;8356923;28;19972;-69
2022/04/30 20:52:14;;;;;;;;;;;11.20;86.50;;;;;;8358221;28;19979;-69
2022/04/30 20:56:16;;;;;;;;;;;11.20;86.70;;;;;;8358486;28;19925;-69
2022/04/30 21:00:17;;;;;;;;;;;11.10;86.60;;;;;;8355261;28;19947;-69
2022/04/30 21:04:19;;;;;;;;;;;11.10;86.60;;;;;;8371098;28;19967;-69
2022/04/30 21:08:21;;;;;;;;;;;11.10;86.70;;;;;;8369580;28;19924;-69
2022/04/30 21:12:23;;;;;;;;;;;11.00;86.70;;;;;;8378597;28;19931;-69
2022/04/30 21:16:24;;;;;;;;;;;11.00;86.80;;;;;;8362272;28;19928;-68
2022/04/30 21:20:28;;;;;;;;;;;11.00;86.80;;;;;;8352019;28;19924;-69
2022/04/30 21:24:30;;;;;;;;;;;11.00;87.00;;;;;;8356344;28;22016;-69
2022/04/30 21:28:38;;;;;;;;;;;11.00;87.20;;;;;;8351486;28;19936;-69
2022/04/30 21:32:40;;;;;;;;;;;10.90;87.10;;;;;;8343646;28;19928;-68
2022/04/30 21:36:42;;;;;;;;;;;10.90;87.10;;;;;;8348107;28;19932;-69
2022/04/30 21:45:04;;;;;;;;;;;10.80;87.10;;;;;;8365294;28;19932;-69
2022/04/30 21:49:08;;;;;;;;;;;10.70;86.90;;;;;;8370526;28;19932;-68
2022/04/30 21:53:09;;;;;;;;;;;10.70;86.90;;;;;;8348435;28;19924;-69
2022/04/30 22:01:31;;;;;;;;;;;10.60;87.00;;;;;;8346749;28;19964;-68
2022/04/30 22:05:33;;;;;;;;;;;10.60;87.00;;;;;;8346808;28;20366;-68
2022/04/30 22:09:35;;;;;;;;;;;10.50;87.10;;;;;;8380482;28;19932;-68
2022/04/30 22:13:38;;;;;;;;;;;10.50;87.20;;;;;;8372042;28;19947;-68
2022/04/30 22:17:40;;;;;;;;;;;10.40;87.30;;;;;;8357037;28;19936;-68
2022/04/30 22:21:42;;;;;;;;;;;10.40;87.30;;;;;;8402563;28;20280;-69
2022/04/30 22:25:43;;;;;;;;;;;10.40;87.30;;;;;;8381217;28;19924;-69
2022/04/30 22:29:45;;;;;;;;;;;10.30;87.10;;;;;;8373282;28;19925;-68
2022/04/30 22:33:47;;;;;;;;;;;10.30;87.20;;;;;;8403600;28;19935;-69
2022/04/30 22:37:49;;;;;;;;;;;10.20;87.40;;;;;;8375950;28;20292;-68
2022/04/30 22:46:10;;;;;;;;;;;10.20;87.50;;;;;;8375817;28;20387;-68
2022/04/30 22:50:12;;;;;;;;;;;10.10;87.50;;;;;;8374581;28;19932;-68
2022/04/30 22:54:14;;;;;;;;;;;10.10;87.40;;;;;;8367846;28;19933;-68
2022/04/30 22:58:36;;;;;;;;;;;10.10;87.50;;;;;;8371161;28;20443;-68
2022/04/30 23:02:38;;;;;;;;;;;10.00;87.60;;;;;;8372264;28;20249;-68
2022/04/30 23:06:39;;;;;;;;;;;10.00;87.70;;;;;;8380524;28;19932;-68
2022/04/30 23:10:41;;;;;;;;;;;10.00;87.70;;;;;;8379723;28;20439;-68
2022/04/30 23:14:43;;;;;;;;;;;10.00;87.70;;;;;;8383253;28;19928;-68
2022/04/30 23:18:44;;;;;;;;;;;9.90;88.70;;;;;;8355597;28;19928;-69
2022/04/30 23:22:46;;;;;;;;;;;9.80;88.60;;;;;;8349202;28;19929;-66
2022/04/30 23:26:48;;;;;;;;;;;9.80;88.80;;;;;;8350567;28;19931;-68
2022/04/30 23:30:49;;;;;;;;;;;9.70;89.00;;;;;;8373884;28;19963;-68
2022/04/30 23:34:51;;;;;;;;;;;9.70;88.80;;;;;;8402121;28;20413;-68
2022/04/30 23:38:53;;;;;;;;;;;9.60;88.90;;;;;;8406186;28;19928;-68
2022/04/30 23:42:54;;;;;;;;;;;9.60;88.90;;;;;;8373909;28;19929;-68
2022/04/30 23:46:56;;;;;;;;;;;9.60;88.80;;;;;;8376739;28;19931;-68
2022/04/30 23:50:58;;;;;;;;;;;9.50;89.00;;;;;;8362014;28;19925;-68
2022/04/30 23:55:00;;;;;;;;;;;9.50;88.90;;;;;;8364096;28;19924;-68
2022/04/30 23:59:01;;;;;;;;;;;9.50;88.90;;;;;;8364580;28;19936;-68
